sensor_id;sensor_type;location;lat;lon;timestamp;pressure;altitude;pressure_sealevel;temperature;humidity
56330;BME280;42236;48.058;10.632;2023-07-08T00:02:40;94956.50;;;18.36;54.27
56330;BME280;42236;48.058;10.632;2023-07-08T00:08:52;94952.53;;;18.26;51.73
56330;BME280;42236;48.058;10.632;2023-07-08T00:11:59;94957.97;;;18.19;54.46
56330;BME280;42236;48.058;10.632;2023-07-08T00:14:45;94954.44;;;18.18;52.33
56330;BME280;42236;48.058;10.632;2023-07-08T00:17:35;94951.69;;;18.11;52.68
56330;BME280;42236;48.058;10.632;2023-07-08T00:20:44;94949.66;;;18.01;55.82
56330;BME280;42236;48.058;10.632;2023-07-08T00:27:27;94944.53;;;17.88;53.58
56330;BME280;42236;48.058;10.632;2023-07-08T00:34:17;94945.25;;;17.85;55.61
56330;BME280;42236;48.058;10.632;2023-07-08T00:37:30;94940.16;;;17.80;56.51
56330;BME280;42236;48.058;10.632;2023-07-08T00:40:36;94944.34;;;17.70;59.06
56330;BME280;42236;48.058;10.632;2023-07-08T00:43:54;94938.09;;;17.66;56.46
56330;BME280;42236;48.058;10.632;2023-07-08T00:47:03;94932.59;;;17.63;57.19
56330;BME280;42236;48.058;10.632;2023-07-08T00:53:46;94947.38;;;17.55;58.24
56330;BME280;42236;48.058;10.632;2023-07-08T01:03:49;94952.97;;;17.28;57.09
56330;BME280;42236;48.058;10.632;2023-07-08T01:06:49;94956.13;;;17.30;57.71
56330;BME280;42236;48.058;10.632;2023-07-08T01:10:08;94953.38;;;17.30;57.58
56330;BME280;42236;48.058;10.632;2023-07-08T01:13:03;94949.44;;;17.27;56.44
56330;BME280;42236;48.058;10.632;2023-07-08T01:16:44;94951.31;;;17.20;58.32
56330;BME280;42236;48.058;10.632;2023-07-08T01:19:30;94949.00;;;17.18;55.90
56330;BME280;42236;48.058;10.632;2023-07-08T01:22:24;94952.09;;;17.17;56.95
56330;BME280;42236;48.058;10.632;2023-07-08T01:25:22;94953.25;;;17.16;56.78
56330;BME280;42236;48.058;10.632;2023-07-08T01:28:24;94960.59;;;17.12;58.67
56330;BME280;42236;48.058;10.632;2023-07-08T01:35:00;94944.16;;;17.04;57.84
56330;BME280;42236;48.058;10.632;2023-07-08T01:38:08;94937.16;;;17.03;58.73
56330;BME280;42236;48.058;10.632;2023-07-08T01:41:33;94939.47;;;17.01;60.99
56330;BME280;42236;48.058;10.632;2023-07-08T01:44:37;94940.22;;;16.98;61.32
56330;BME280;42236;48.058;10.632;2023-07-08T01:47:59;94941.38;;;16.97;61.60
56330;BME280;42236;48.058;10.632;2023-07-08T01:51:00;94927.72;;;16.94;59.37
56330;BME280;42236;48.058;10.632;2023-07-08T01:53:52;94924.94;;;16.90;59.65
56330;BME280;42236;48.058;10.632;2023-07-08T02:00:31;94924.53;;;16.88;58.26
56330;BME280;42236;48.058;10.632;2023-07-08T02:03:17;94914.38;;;16.85;59.06
56330;BME280;42236;48.058;10.632;2023-07-08T02:06:05;94912.81;;;16.84;58.70
56330;BME280;42236;48.058;10.632;2023-07-08T02:15:48;94897.28;;;16.88;59.13
56330;BME280;42236;48.058;10.632;2023-07-08T02:18:35;94915.22;;;16.89;59.18
56330;BME280;42236;48.058;10.632;2023-07-08T02:24:50;94911.56;;;16.78;59.86
56330;BME280;42236;48.058;10.632;2023-07-08T02:31:17;94913.63;;;16.54;66.29
56330;BME280;42236;48.058;10.632;2023-07-08T02:34:03;94916.69;;;16.49;62.49
56330;BME280;42236;48.058;10.632;2023-07-08T02:40:16;94912.75;;;16.43;62.78
56330;BME280;42236;48.058;10.632;2023-07-08T02:43:05;94915.47;;;16.43;64.21
56330;BME280;42236;48.058;10.632;2023-07-08T02:46:44;94924.06;;;16.49;67.16
56330;BME280;42236;48.058;10.632;2023-07-08T02:50:11;94928.84;;;16.55;66.17
56330;BME280;42236;48.058;10.632;2023-07-08T02:56:34;94929.59;;;16.56;66.62
56330;BME280;42236;48.058;10.632;2023-07-08T02:59:22;94935.84;;;16.56;62.46
56330;BME280;42236;48.058;10.632;2023-07-08T03:03:46;94939.41;;;16.60;65.76
56330;BME280;42236;48.058;10.632;2023-07-08T03:06:05;94953.44;;;16.62;62.54
56330;BME280;42236;48.058;10.632;2023-07-08T03:08:53;94955.00;;;16.63;62.95
56330;BME280;42236;48.058;10.632;2023-07-08T03:11:53;94956.19;;;16.66;66.12
56330;BME280;42236;48.058;10.632;2023-07-08T03:14:42;94955.50;;;16.73;62.80
56330;BME280;42236;48.058;10.632;2023-07-08T03:17:28;94964.13;;;16.78;62.27
56330;BME280;42236;48.058;10.632;2023-07-08T03:20:14;94979.69;;;16.78;62.63
56330;BME280;42236;48.058;10.632;2023-07-08T03:23:12;95013.72;;;16.61;69.23
56330;BME280;42236;48.058;10.632;2023-07-08T03:25:58;95016.25;;;16.47;65.58
56330;BME280;42236;48.058;10.632;2023-07-08T03:29:22;94994.72;;;16.38;71.43
56330;BME280;42236;48.058;10.632;2023-07-08T03:32:12;94986.25;;;16.43;65.71
56330;BME280;42236;48.058;10.632;2023-07-08T03:34:58;94990.53;;;16.44;66.10
56330;BME280;42236;48.058;10.632;2023-07-08T03:37:43;94998.38;;;16.49;66.36
56330;BME280;42236;48.058;10.632;2023-07-08T03:40:42;94989.44;;;16.49;68.64
56330;BME280;42236;48.058;10.632;2023-07-08T03:43:57;94994.13;;;16.52;70.80
56330;BME280;42236;48.058;10.632;2023-07-08T03:46:49;95015.16;;;16.51;67.81
56330;BME280;42236;48.058;10.632;2023-07-08T03:53:13;95000.28;;;16.45;71.04
56330;BME280;42236;48.058;10.632;2023-07-08T04:00:05;94997.19;;;16.47;70.52
56330;BME280;42236;48.058;10.632;2023-07-08T04:03:40;94994.09;;;16.48;71.35
56330;BME280;42236;48.058;10.632;2023-07-08T04:06:46;94970.72;;;16.47;67.04
56330;BME280;42236;48.058;10.632;2023-07-08T04:10:24;94965.19;;;16.40;71.03
56330;BME280;42236;48.058;10.632;2023-07-08T04:13:03;94968.00;;;16.47;66.93
56330;BME280;42236;48.058;10.632;2023-07-08T04:15:58;94977.09;;;16.58;70.71
56330;BME280;42236;48.058;10.632;2023-07-08T04:18:45;94983.06;;;16.68;67.33
56330;BME280;42236;48.058;10.632;2023-07-08T04:21:30;94991.75;;;16.77;67.02
56330;BME280;42236;48.058;10.632;2023-07-08T04:24:17;94993.00;;;16.83;67.09
56330;BME280;42236;48.058;10.632;2023-07-08T04:27:07;94997.75;;;16.90;67.29
56330;BME280;42236;48.058;10.632;2023-07-08T04:29:56;95007.97;;;16.96;67.22
56330;BME280;42236;48.058;10.632;2023-07-08T04:32:45;94998.19;;;16.95;68.99
56330;BME280;42236;48.058;10.632;2023-07-08T04:35:31;94991.56;;;16.93;68.23
56330;BME280;42236;48.058;10.632;2023-07-08T04:38:19;94990.78;;;16.96;68.24
56330;BME280;42236;48.058;10.632;2023-07-08T04:41:30;94996.25;;;16.96;71.79
56330;BME280;42236;48.058;10.632;2023-07-08T04:44:16;94995.56;;;17.02;68.35
56330;BME280;42236;48.058;10.632;2023-07-08T04:47:03;94996.81;;;17.09;68.32
56330;BME280;42236;48.058;10.632;2023-07-08T04:49:49;95000.31;;;17.13;68.59
56330;BME280;42236;48.058;10.632;2023-07-08T04:52:38;94994.94;;;17.20;68.26
56330;BME280;42236;48.058;10.632;2023-07-08T04:55:24;94993.13;;;17.31;67.98
56330;BME280;42236;48.058;10.632;2023-07-08T04:58:10;94996.34;;;17.40;68.24
56330;BME280;42236;48.058;10.632;2023-07-08T05:00:55;94989.78;;;17.48;67.37
56330;BME280;42236;48.058;10.632;2023-07-08T05:03:41;94984.44;;;17.63;66.91
56330;BME280;42236;48.058;10.632;2023-07-08T05:06:43;94988.97;;;17.89;68.12
56330;BME280;42236;48.058;10.632;2023-07-08T05:09:29;94997.81;;;18.27;64.86
56330;BME280;42236;48.058;10.632;2023-07-08T05:12:17;95006.19;;;18.59;63.54
56330;BME280;42236;48.058;10.632;2023-07-08T05:15:03;94998.06;;;18.73;63.73
56330;BME280;42236;48.058;10.632;2023-07-08T05:17:52;95000.44;;;18.82;63.55
56330;BME280;42236;48.058;10.632;2023-07-08T05:20:57;94994.22;;;18.82;63.58
56330;BME280;42236;48.058;10.632;2023-07-08T05:23:43;95000.09;;;18.87;62.77
56330;BME280;42236;48.058;10.632;2023-07-08T05:26:29;95000.50;;;18.93;62.87
56330;BME280;42236;48.058;10.632;2023-07-08T05:29:26;94997.00;;;18.96;64.29
56330;BME280;42236;48.058;10.632;2023-07-08T05:32:12;94999.72;;;18.96;62.76
56330;BME280;42236;48.058;10.632;2023-07-08T05:34:58;94995.06;;;19.00;63.19
56330;BME280;42236;48.058;10.632;2023-07-08T05:37:43;94997.81;;;19.04;63.24
56330;BME280;42236;48.058;10.632;2023-07-08T05:40:32;95006.44;;;19.09;63.18
56330;BME280;42236;48.058;10.632;2023-07-08T05:43:18;95004.09;;;19.15;63.70
56330;BME280;42236;48.058;10.632;2023-07-08T05:46:04;95006.88;;;19.26;62.78
56330;BME280;42236;48.058;10.632;2023-07-08T05:48:49;95006.88;;;19.36;62.50
56330;BME280;42236;48.058;10.632;2023-07-08T05:51:54;95011.59;;;19.43;62.46
56330;BME280;42236;48.058;10.632;2023-07-08T05:54:41;94999.47;;;19.51;62.00
56330;BME280;42236;48.058;10.632;2023-07-08T05:57:27;95000.66;;;19.50;61.43
56330;BME280;42236;48.058;10.632;2023-07-08T06:00:13;95005.75;;;19.55;61.43
56330;BME280;42236;48.058;10.632;2023-07-08T06:02:59;95007.72;;;19.66;60.94
56330;BME280;42236;48.058;10.632;2023-07-08T06:05:45;95023.78;;;19.74;60.82
56330;BME280;42236;48.058;10.632;2023-07-08T06:09:04;95030.06;;;19.82;60.77
56330;BME280;42236;48.058;10.632;2023-07-08T06:11:53;95022.63;;;19.90;60.51
56330;BME280;42236;48.058;10.632;2023-07-08T06:14:39;95012.84;;;20.03;59.89
56330;BME280;42236;48.058;10.632;2023-07-08T06:17:27;95019.09;;;20.14;59.67
56330;BME280;42236;48.058;10.632;2023-07-08T06:20:31;95018.69;;;20.23;60.68
56330;BME280;42236;48.058;10.632;2023-07-08T06:23:17;95019.06;;;20.36;59.17
56330;BME280;42236;48.058;10.632;2023-07-08T06:26:22;95024.50;;;20.50;59.31
56330;BME280;42236;48.058;10.632;2023-07-08T06:29:15;95024.91;;;20.66;58.30
56330;BME280;42236;48.058;10.632;2023-07-08T06:32:02;95030.75;;;20.83;57.86
56330;BME280;42236;48.058;10.632;2023-07-08T06:34:48;95022.44;;;21.01;57.52
56330;BME280;42236;48.058;10.632;2023-07-08T06:37:34;95026.63;;;21.23;57.40
56330;BME280;42236;48.058;10.632;2023-07-08T06:40:23;95022.66;;;21.46;57.05
56330;BME280;42236;48.058;10.632;2023-07-08T06:43:09;95024.09;;;21.61;56.18
56330;BME280;42236;48.058;10.632;2023-07-08T06:45:54;95022.03;;;21.76;56.49
56330;BME280;42236;48.058;10.632;2023-07-08T06:48:40;95025.06;;;21.89;55.71
56330;BME280;42236;48.058;10.632;2023-07-08T06:51:28;95029.31;;;22.01;55.74
56330;BME280;42236;48.058;10.632;2023-07-08T06:54:14;95036.28;;;22.12;54.79
56330;BME280;42236;48.058;10.632;2023-07-08T06:57:00;95040.94;;;22.23;54.31
56330;BME280;42236;48.058;10.632;2023-07-08T06:59:46;95042.41;;;22.34;53.73
56330;BME280;42236;48.058;10.632;2023-07-08T07:02:34;95047.81;;;22.45;53.76
56330;BME280;42236;48.058;10.632;2023-07-08T07:05:20;95054.03;;;22.49;53.00
56330;BME280;42236;48.058;10.632;2023-07-08T07:08:18;95056.06;;;22.45;51.72
56330;BME280;42236;48.058;10.632;2023-07-08T07:14:31;95047.63;;;22.63;53.49
56330;BME280;42236;48.058;10.632;2023-07-08T07:17:17;95048.25;;;22.78;53.13
56330;BME280;42236;48.058;10.632;2023-07-08T07:20:03;95050.56;;;22.83;52.69
56330;BME280;42236;48.058;10.632;2023-07-08T07:22:49;95055.91;;;22.97;51.91
56330;BME280;42236;48.058;10.632;2023-07-08T07:25:36;95064.00;;;23.15;51.67
56330;BME280;42236;48.058;10.632;2023-07-08T07:28:25;95068.03;;;23.41;50.81
56330;BME280;42236;48.058;10.632;2023-07-08T07:31:11;95068.09;;;23.65;50.16
56330;BME280;42236;48.058;10.632;2023-07-08T07:34:10;95071.50;;;23.76;49.22
56330;BME280;42236;48.058;10.632;2023-07-08T07:36:59;95066.19;;;23.89;49.68
56330;BME280;42236;48.058;10.632;2023-07-08T07:39:46;95069.63;;;23.97;49.56
56330;BME280;42236;48.058;10.632;2023-07-08T07:42:47;95065.31;;;23.96;47.32
56330;BME280;42236;48.058;10.632;2023-07-08T07:45:34;95066.47;;;23.98;48.70
56330;BME280;42236;48.058;10.632;2023-07-08T07:48:20;95071.31;;;23.91;48.66
56330;BME280;42236;48.058;10.632;2023-07-08T07:51:06;95082.22;;;23.98;48.68
56330;BME280;42236;48.058;10.632;2023-07-08T07:54:01;95074.81;;;24.18;48.64
56330;BME280;42236;48.058;10.632;2023-07-08T07:56:47;95077.78;;;24.31;47.89
56330;BME280;42236;48.058;10.632;2023-07-08T07:59:35;95074.53;;;24.36;47.72
56330;BME280;42236;48.058;10.632;2023-07-08T08:02:21;95079.41;;;24.52;47.62
56330;BME280;42236;48.058;10.632;2023-07-08T08:05:19;95082.75;;;24.40;47.40
56330;BME280;42236;48.058;10.632;2023-07-08T08:08:05;95083.84;;;24.46;47.20
56330;BME280;42236;48.058;10.632;2023-07-08T08:10:51;95093.16;;;24.56;47.16
56330;BME280;42236;48.058;10.632;2023-07-08T08:13:39;95087.31;;;24.74;47.20
56330;BME280;42236;48.058;10.632;2023-07-08T08:16:28;95096.13;;;24.88;46.80
56330;BME280;42236;48.058;10.632;2023-07-08T08:19:14;95094.03;;;24.96;47.07
56330;BME280;42236;48.058;10.632;2023-07-08T08:22:09;95109.13;;;25.11;47.27
56330;BME280;42236;48.058;10.632;2023-07-08T08:24:55;95091.81;;;25.31;46.82
56330;BME280;42236;48.058;10.632;2023-07-08T08:27:41;95102.50;;;25.29;46.23
56330;BME280;42236;48.058;10.632;2023-07-08T08:30:27;95103.25;;;25.29;45.39
56330;BME280;42236;48.058;10.632;2023-07-08T08:33:13;95115.44;;;25.32;45.58
56330;BME280;42236;48.058;10.632;2023-07-08T08:36:17;95112.75;;;25.48;43.02
56330;BME280;42236;48.058;10.632;2023-07-08T08:39:03;95117.13;;;25.66;44.29
56330;BME280;42236;48.058;10.632;2023-07-08T08:41:49;95113.94;;;25.67;42.59
56330;BME280;42236;48.058;10.632;2023-07-08T08:44:48;95107.56;;;25.70;41.62
56330;BME280;42236;48.058;10.632;2023-07-08T08:47:39;95116.00;;;25.83;41.92
56330;BME280;42236;48.058;10.632;2023-07-08T08:50:30;95118.47;;;25.98;42.12
56330;BME280;42236;48.058;10.632;2023-07-08T08:53:19;95119.03;;;26.25;41.87
56330;BME280;42236;48.058;10.632;2023-07-08T08:56:20;95115.56;;;26.21;39.93
56330;BME280;42236;48.058;10.632;2023-07-08T08:59:17;95118.47;;;25.98;41.02
56330;BME280;42236;48.058;10.632;2023-07-08T09:08:40;95128.53;;;25.68;40.86
56330;BME280;42236;48.058;10.632;2023-07-08T09:14:24;95132.03;;;25.72;40.80
56330;BME280;42236;48.058;10.632;2023-07-08T09:20:25;95125.47;;;25.82;39.46
56330;BME280;42236;48.058;10.632;2023-07-08T09:26:19;95133.53;;;26.13;39.59
56330;BME280;42236;48.058;10.632;2023-07-08T09:29:09;95140.44;;;26.21;39.06
56330;BME280;42236;48.058;10.632;2023-07-08T09:31:55;95145.47;;;26.10;39.28
56330;BME280;42236;48.058;10.632;2023-07-08T09:34:55;95135.56;;;25.92;39.10
56330;BME280;42236;48.058;10.632;2023-07-08T09:37:45;95139.53;;;25.91;39.35
56330;BME280;42236;48.058;10.632;2023-07-08T09:40:33;95141.72;;;25.80;39.61
56330;BME280;42236;48.058;10.632;2023-07-08T09:43:30;95144.91;;;25.59;39.92
56330;BME280;42236;48.058;10.632;2023-07-08T09:46:22;95142.09;;;25.62;40.07
56330;BME280;42236;48.058;10.632;2023-07-08T09:49:23;95151.38;;;25.72;40.49
56330;BME280;42236;48.058;10.632;2023-07-08T09:52:12;95143.50;;;25.90;40.77
56330;BME280;42236;48.058;10.632;2023-07-08T09:54:57;95143.88;;;26.09;40.33
56330;BME280;42236;48.058;10.632;2023-07-08T09:57:45;95146.13;;;26.14;39.95
56330;BME280;42236;48.058;10.632;2023-07-08T10:00:38;95157.25;;;26.47;41.70
56330;BME280;42236;48.058;10.632;2023-07-08T10:03:31;95161.03;;;26.73;40.33
56330;BME280;42236;48.058;10.632;2023-07-08T10:06:31;95164.56;;;26.73;40.26
56330;BME280;42236;48.058;10.632;2023-07-08T10:09:20;95164.03;;;26.78;40.34
56330;BME280;42236;48.058;10.632;2023-07-08T10:12:08;95156.91;;;26.94;40.67
56330;BME280;42236;48.058;10.632;2023-07-08T10:15:10;95156.13;;;27.10;40.47
56330;BME280;42236;48.058;10.632;2023-07-08T10:18:01;95158.78;;;27.30;40.21
56330;BME280;42236;48.058;10.632;2023-07-08T10:21:12;95161.19;;;27.44;39.63
56330;BME280;42236;48.058;10.632;2023-07-08T10:24:29;95152.06;;;27.73;39.20
56330;BME280;42236;48.058;10.632;2023-07-08T10:31:01;95160.19;;;27.80;39.44
56330;BME280;42236;48.058;10.632;2023-07-08T10:37:25;95154.38;;;27.61;39.75
56330;BME280;42236;48.058;10.632;2023-07-08T10:46:50;95142.81;;;27.50;39.11
56330;BME280;42236;48.058;10.632;2023-07-08T10:49:51;95141.94;;;27.53;39.35
56330;BME280;42236;48.058;10.632;2023-07-08T10:55:59;95142.06;;;27.62;39.64
56330;BME280;42236;48.058;10.632;2023-07-08T11:02:00;95129.16;;;27.85;39.03
56330;BME280;42236;48.058;10.632;2023-07-08T11:04:56;95133.59;;;27.82;39.86
56330;BME280;42236;48.058;10.632;2023-07-08T11:07:50;95134.00;;;27.81;39.72
56330;BME280;42236;48.058;10.632;2023-07-08T11:10:59;95136.47;;;27.79;39.10
56330;BME280;42236;48.058;10.632;2023-07-08T11:13:57;95141.38;;;28.00;39.79
56330;BME280;42236;48.058;10.632;2023-07-08T11:17:03;95134.28;;;27.99;39.44
56330;BME280;42236;48.058;10.632;2023-07-08T11:20:15;95130.53;;;28.19;39.47
56330;BME280;42236;48.058;10.632;2023-07-08T11:23:11;95123.31;;;28.21;39.02
56330;BME280;42236;48.058;10.632;2023-07-08T11:26:16;95130.44;;;28.35;38.71
56330;BME280;42236;48.058;10.632;2023-07-08T11:29:14;95124.56;;;28.20;37.60
56330;BME280;42236;48.058;10.632;2023-07-08T11:32:03;95129.09;;;28.27;38.69
56330;BME280;42236;48.058;10.632;2023-07-08T11:34:52;95125.34;;;28.46;38.62
56330;BME280;42236;48.058;10.632;2023-07-08T11:37:42;95133.53;;;28.37;38.21
56330;BME280;42236;48.058;10.632;2023-07-08T11:40:28;95130.06;;;28.07;38.48
56330;BME280;42236;48.058;10.632;2023-07-08T11:43:14;95123.19;;;28.12;38.84
56330;BME280;42236;48.058;10.632;2023-07-08T11:46:05;95130.88;;;28.21;38.52
56330;BME280;42236;48.058;10.632;2023-07-08T11:48:53;95118.22;;;28.20;38.18
56330;BME280;42236;48.058;10.632;2023-07-08T11:51:43;95113.13;;;28.18;38.33
56330;BME280;42236;48.058;10.632;2023-07-08T11:54:30;95122.34;;;28.28;38.75
56330;BME280;42236;48.058;10.632;2023-07-08T11:57:39;95110.56;;;28.24;38.04
56330;BME280;42236;48.058;10.632;2023-07-08T12:00:31;95114.34;;;28.30;38.31
56330;BME280;42236;48.058;10.632;2023-07-08T12:03:37;95118.00;;;28.14;37.94
56330;BME280;42236;48.058;10.632;2023-07-08T12:09:25;95108.22;;;27.97;38.27
56330;BME280;42236;48.058;10.632;2023-07-08T12:12:35;95103.34;;;28.01;36.83
56330;BME280;42236;48.058;10.632;2023-07-08T12:15:32;95113.56;;;28.04;37.98
56330;BME280;42236;48.058;10.632;2023-07-08T12:21:25;95121.19;;;28.00;37.35
56330;BME280;42236;48.058;10.632;2023-07-08T12:24:13;95111.56;;;27.92;38.10
56330;BME280;42236;48.058;10.632;2023-07-08T12:26:59;95110.09;;;28.00;38.13
56330;BME280;42236;48.058;10.632;2023-07-08T12:30:13;95110.78;;;27.91;37.99
56330;BME280;42236;48.058;10.632;2023-07-08T12:33:00;95109.88;;;27.94;37.91
56330;BME280;42236;48.058;10.632;2023-07-08T12:35:47;95115.78;;;27.96;37.69
56330;BME280;42236;48.058;10.632;2023-07-08T12:38:37;95120.44;;;27.99;37.54
56330;BME280;42236;48.058;10.632;2023-07-08T12:41:32;95112.44;;;28.14;37.13
56330;BME280;42236;48.058;10.632;2023-07-08T12:44:21;95120.88;;;28.23;36.93
56330;BME280;42236;48.058;10.632;2023-07-08T12:47:08;95131.41;;;28.41;36.55
56330;BME280;42236;48.058;10.632;2023-07-08T12:49:54;95134.53;;;28.43;35.81
56330;BME280;42236;48.058;10.632;2023-07-08T12:52:40;95125.34;;;28.46;36.01
56330;BME280;42236;48.058;10.632;2023-07-08T12:55:28;95124.34;;;28.66;35.01
56330;BME280;42236;48.058;10.632;2023-07-08T12:58:19;95125.88;;;28.67;34.82
56330;BME280;42236;48.058;10.632;2023-07-08T13:01:08;95125.88;;;28.67;34.70
56330;BME280;42236;48.058;10.632;2023-07-08T13:04:04;95127.69;;;29.08;35.19
56330;BME280;42236;48.058;10.632;2023-07-08T13:06:51;95125.94;;;29.59;33.89
56330;BME280;42236;48.058;10.632;2023-07-08T13:09:42;95113.13;;;29.61;32.22
56330;BME280;42236;48.058;10.632;2023-07-08T13:12:32;95123.41;;;29.73;32.97
56330;BME280;42236;48.058;10.632;2023-07-08T13:15:32;95125.16;;;29.58;31.06
56330;BME280;42236;48.058;10.632;2023-07-08T13:18:22;95127.59;;;29.56;32.47
56330;BME280;42236;48.058;10.632;2023-07-08T13:21:12;95126.38;;;29.35;31.14
56330;BME280;42236;48.058;10.632;2023-07-08T13:23:59;95117.56;;;29.14;31.87
56330;BME280;42236;48.058;10.632;2023-07-08T13:26:46;95122.59;;;28.94;31.25
56330;BME280;42236;48.058;10.632;2023-07-08T13:29:45;95120.19;;;28.83;30.77
56330;BME280;42236;48.058;10.632;2023-07-08T13:32:53;95119.38;;;28.96;30.68
56330;BME280;42236;48.058;10.632;2023-07-08T13:35:42;95109.34;;;29.11;30.68
56330;BME280;42236;48.058;10.632;2023-07-08T13:38:34;95120.03;;;29.34;30.97
56330;BME280;42236;48.058;10.632;2023-07-08T13:41:24;95122.81;;;29.34;29.74
56330;BME280;42236;48.058;10.632;2023-07-08T13:44:13;95117.31;;;29.44;31.40
56330;BME280;42236;48.058;10.632;2023-07-08T13:46:59;95125.47;;;29.60;31.22
56330;BME280;42236;48.058;10.632;2023-07-08T13:49:51;95126.97;;;29.74;30.93
56330;BME280;42236;48.058;10.632;2023-07-08T13:52:43;95127.94;;;29.80;30.48
56330;BME280;42236;48.058;10.632;2023-07-08T13:55:29;95119.19;;;29.91;31.12
56330;BME280;42236;48.058;10.632;2023-07-08T13:58:19;95123.28;;;29.99;30.04
56330;BME280;42236;48.058;10.632;2023-07-08T14:01:26;95120.06;;;29.78;29.81
56330;BME280;42236;48.058;10.632;2023-07-08T14:04:22;95120.53;;;29.77;30.30
56330;BME280;42236;48.058;10.632;2023-07-08T14:07:21;95117.78;;;29.86;31.50
56330;BME280;42236;48.058;10.632;2023-07-08T14:10:12;95125.19;;;30.11;28.87
56330;BME280;42236;48.058;10.632;2023-07-08T14:13:01;95122.53;;;30.08;29.22
56330;BME280;42236;48.058;10.632;2023-07-08T14:15:46;95120.44;;;29.90;29.82
56330;BME280;42236;48.058;10.632;2023-07-08T14:18:32;95121.25;;;29.99;30.34
56330;BME280;42236;48.058;10.632;2023-07-08T14:21:18;95111.00;;;30.18;30.46
56330;BME280;42236;48.058;10.632;2023-07-08T14:24:14;95114.09;;;30.20;30.58
56330;BME280;42236;48.058;10.632;2023-07-08T14:27:00;95115.44;;;30.38;30.59
56330;BME280;42236;48.058;10.632;2023-07-08T14:29:48;95108.19;;;30.50;30.33
56330;BME280;42236;48.058;10.632;2023-07-08T14:32:37;95112.69;;;30.56;30.18
56330;BME280;42236;48.058;10.632;2023-07-08T14:35:28;95104.03;;;30.63;29.55
56330;BME280;42236;48.058;10.632;2023-07-08T14:38:14;95101.25;;;30.63;30.22
56330;BME280;42236;48.058;10.632;2023-07-08T14:41:00;95106.69;;;30.67;29.78
56330;BME280;42236;48.058;10.632;2023-07-08T14:43:46;95097.72;;;30.72;29.85
56330;BME280;42236;48.058;10.632;2023-07-08T14:46:32;95102.38;;;30.75;30.23
56330;BME280;42236;48.058;10.632;2023-07-08T14:49:22;95101.47;;;30.78;30.17
56330;BME280;42236;48.058;10.632;2023-07-08T14:52:08;95095.16;;;30.47;30.01
56330;BME280;42236;48.058;10.632;2023-07-08T14:54:54;95100.91;;;30.43;30.15
56330;BME280;42236;48.058;10.632;2023-07-08T14:57:45;95098.75;;;30.56;30.28
56330;BME280;42236;48.058;10.632;2023-07-08T15:00:32;95094.47;;;30.74;29.91
56330;BME280;42236;48.058;10.632;2023-07-08T15:03:18;95096.38;;;30.86;30.16
56330;BME280;42236;48.058;10.632;2023-07-08T15:06:10;95092.50;;;30.93;28.78
56330;BME280;42236;48.058;10.632;2023-07-08T15:08:55;95091.75;;;31.01;29.60
56330;BME280;42236;48.058;10.632;2023-07-08T15:11:41;95091.91;;;31.16;29.91
56330;BME280;42236;48.058;10.632;2023-07-08T15:14:30;95090.81;;;31.23;29.66
56330;BME280;42236;48.058;10.632;2023-07-08T15:17:16;95092.84;;;31.32;29.14
56330;BME280;42236;48.058;10.632;2023-07-08T15:20:09;95084.03;;;31.42;28.54
56330;BME280;42236;48.058;10.632;2023-07-08T15:22:55;95080.91;;;31.50;28.82
56330;BME280;42236;48.058;10.632;2023-07-08T15:25:43;95080.28;;;31.45;28.63
56330;BME280;42236;48.058;10.632;2023-07-08T15:28:38;95080.13;;;31.21;28.55
56330;BME280;42236;48.058;10.632;2023-07-08T15:31:34;95077.19;;;31.16;29.06
56330;BME280;42236;48.058;10.632;2023-07-08T15:34:21;95093.78;;;31.10;29.18
56330;BME280;42236;48.058;10.632;2023-07-08T15:37:07;95092.06;;;31.13;29.30
56330;BME280;42236;48.058;10.632;2023-07-08T15:39:53;95092.97;;;31.10;29.31
56330;BME280;42236;48.058;10.632;2023-07-08T15:42:39;95084.78;;;31.15;29.07
56330;BME280;42236;48.058;10.632;2023-07-08T15:45:31;95078.13;;;31.40;28.38
56330;BME280;42236;48.058;10.632;2023-07-08T15:48:18;95076.50;;;31.85;29.08
56330;BME280;42236;48.058;10.632;2023-07-08T15:51:04;95082.06;;;32.37;28.64
56330;BME280;42236;48.058;10.632;2023-07-08T15:53:49;95070.91;;;32.70;27.98
56330;BME280;42236;48.058;10.632;2023-07-08T15:56:35;95064.53;;;32.94;27.61
56330;BME280;42236;48.058;10.632;2023-07-08T15:59:24;95072.69;;;33.07;27.01
56330;BME280;42236;48.058;10.632;2023-07-08T16:02:26;95072.72;;;32.98;26.14
56330;BME280;42236;48.058;10.632;2023-07-08T16:05:13;95071.19;;;32.97;27.44
56330;BME280;42236;48.058;10.632;2023-07-08T16:07:58;95076.75;;;33.06;27.38
56330;BME280;42236;48.058;10.632;2023-07-08T16:10:51;95077.94;;;33.29;26.63
56330;BME280;42236;48.058;10.632;2023-07-08T16:13:38;95070.38;;;33.44;27.37
56330;BME280;42236;48.058;10.632;2023-07-08T16:16:25;95072.66;;;33.46;26.96
56330;BME280;42236;48.058;10.632;2023-07-08T16:19:12;95070.25;;;33.53;26.62
56330;BME280;42236;48.058;10.632;2023-07-08T16:21:58;95075.31;;;33.64;26.45
56330;BME280;42236;48.058;10.632;2023-07-08T16:24:43;95077.06;;;33.62;26.67
56330;BME280;42236;48.058;10.632;2023-07-08T16:27:29;95072.44;;;33.73;26.19
56330;BME280;42236;48.058;10.632;2023-07-08T16:30:18;95071.13;;;34.04;25.95
56330;BME280;42236;48.058;10.632;2023-07-08T16:33:04;95071.91;;;34.34;25.53
56330;BME280;42236;48.058;10.632;2023-07-08T16:35:50;95062.94;;;34.00;25.58
56330;BME280;42236;48.058;10.632;2023-07-08T16:38:36;95061.78;;;33.63;25.93
56330;BME280;42236;48.058;10.632;2023-07-08T16:41:26;95072.97;;;33.92;25.86
56330;BME280;42236;48.058;10.632;2023-07-08T16:44:15;95070.91;;;34.37;25.29
56330;BME280;42236;48.058;10.632;2023-07-08T16:47:01;95070.44;;;34.74;25.08